Terminal Aerodrome Forecast
Issued by NWS

Home | Current Version | Previous Version | Text Only | Print | Product List | Glossary On
Versions: 1 2 3 4 5 6 7 8 9 10 11 12 13 14 15
016
FTUS42 KTBW 031508 AAA
TAFLAL
TAF AMD
KLAL 031508Z 0315/0412 22008KT P6SM BKN035 OVC200
      TEMPO 0315/0317 BKN025
     FM031800 25010G15KT P6SM VCTS BKN040CB
     FM040000 25007KT P6SM SCT040 BKN150
     FM040600 23007KT P6SM VCSH BKN025=

USA.gov is the U.S. government's official web portal to all federal, state and local government web resources and services.